Time;durP1;ratioP1;P1;durP2;ratioP2;P2;SDS_P1;SDS_P2;PMS_P1;PMS_P2;Temp;Humidity;BMP_temperature;BMP_pressure;BME280_temperature;BME280_humidity;BME280_pressure;Samples;Min_cycle;Max_cycle;Signal;HPM_P1;HPM_P2
2023/09/30 00:04:46;;;;;;;2.45;0.70;;;;;;;;;;10417579;28;20218;-78
2023/09/30 00:09:47;;;;;;;4.32;1.10;;;;;;;;;;10395462;28;20882;-77
2023/09/30 00:14:48;;;;;;;1.05;0.90;;;;;;;;;;10405902;28;20302;-79
2023/09/30 00:19:49;;;;;;;3.60;1.48;;;;;;;;;;10413277;28;20222;-78
2023/09/30 00:24:50;;;;;;;3.97;1.55;;;;;;;;;;10365930;28;20262;-77
2023/09/30 00:29:51;;;;;;;8.75;1.38;;;;;;;;;;10370558;28;20247;-79
2023/09/30 00:34:53;;;;;;;3.63;1.65;;;;;;;;;;10336400;28;20261;-77
2023/09/30 00:39:55;;;;;;;3.58;1.30;;;;;;;;;;10352387;28;20216;-79
2023/09/30 00:44:56;;;;;;;6.93;1.85;;;;;;;;;;10351224;28;20593;-76
2023/09/30 00:49:57;;;;;;;3.65;1.73;;;;;;;;;;10335481;28;20223;-78
2023/09/30 00:54:58;;;;;;;7.30;1.25;;;;;;;;;;10338271;28;20212;-77
2023/09/30 01:00:01;;;;;;;3.22;1.08;;;;;;;;;;10347621;28;20226;-77
2023/09/30 01:05:02;;;;;;;1.80;1.20;;;;;;;;;;10353726;28;20212;-78
2023/09/30 01:10:04;;;;;;;3.15;1.15;;;;;;;;;;10347731;28;20277;-78
2023/09/30 01:15:06;;;;;;;3.42;1.40;;;;;;;;;;10351847;28;20200;-78
2023/09/30 01:20:08;;;;;;;8.20;1.40;;;;;;;;;;10340537;28;20717;-79
2023/09/30 01:25:09;;;;;;;2.30;1.17;;;;;;;;;;10323411;28;20311;-77
2023/09/30 01:30:11;;;;;;;5.80;1.38;;;;;;;;;;10328846;28;20212;-77
2023/09/30 01:35:12;;;;;;;1.85;1.27;;;;;;;;;;10371174;28;20206;-77
2023/09/30 01:40:14;;;;;;;5.95;1.10;;;;;;;;;;10334011;28;20184;-78
2023/09/30 01:45:15;;;;;;;5.18;1.17;;;;;;;;;;10352702;28;20204;-77
2023/09/30 01:50:17;;;;;;;6.53;1.30;;;;;;;;;;10331791;28;20622;-78
2023/09/30 01:55:18;;;;;;;3.95;1.27;;;;;;;;;;10371269;28;20203;-78
2023/09/30 02:00:19;;;;;;;2.10;1.20;;;;;;;;;;10346628;28;20192;-78
2023/09/30 02:05:20;;;;;;;3.85;1.17;;;;;;;;;;10333452;28;20262;-79
2023/09/30 02:10:21;;;;;;;5.40;1.05;;;;;;;;;;10340104;28;20240;-80
2023/09/30 02:15:22;;;;;;;7.53;1.38;;;;;;;;;;10343986;28;20200;-78
2023/09/30 02:20:25;;;;;;;5.20;1.20;;;;;;;;;;10348983;28;20220;-77
2023/09/30 02:25:26;;;;;;;2.78;1.25;;;;;;;;;;10360166;28;20318;-77
2023/09/30 02:30:27;;;;;;;6.53;1.25;;;;;;;;;;10373329;28;20921;-78
2023/09/30 02:35:28;;;;;;;8.90;1.30;;;;;;;;;;10388829;28;20237;-78
2023/09/30 02:40:29;;;;;;;8.98;1.20;;;;;;;;;;10373102;28;20218;-77
2023/09/30 02:45:30;;;;;;;1.50;1.40;;;;;;;;;;10396120;28;20218;-78
2023/09/30 02:50:31;;;;;;;13.02;1.65;;;;;;;;;;10381538;28;20227;-79
2023/09/30 02:55:34;;;;;;;1.48;1.10;;;;;;;;;;10409000;28;20219;-77
2023/09/30 03:00:37;;;;;;;3.20;1.35;;;;;;;;;;10390080;28;23294;-79
2023/09/30 03:05:39;;;;;;;5.65;1.10;;;;;;;;;;10371244;28;20819;-78
2023/09/30 03:10:40;;;;;;;5.57;1.02;;;;;;;;;;10365709;28;20288;-77
2023/09/30 03:15:41;;;;;;;1.70;0.90;;;;;;;;;;10372908;28;20297;-78
2023/09/30 03:20:43;;;;;;;2.25;1.13;;;;;;;;;;10398715;28;20211;-78
2023/09/30 03:25:44;;;;;;;5.20;1.27;;;;;;;;;;10395365;28;20255;-77
2023/09/30 03:30:45;;;;;;;7.10;1.17;;;;;;;;;;10365021;28;20225;-77
2023/09/30 03:35:46;;;;;;;3.88;1.58;;;;;;;;;;10394433;28;20899;-80
2023/09/30 03:40:47;;;;;;;2.38;1.50;;;;;;;;;;10382701;28;20206;-81
2023/09/30 03:45:50;;;;;;;8.15;1.30;;;;;;;;;;10379465;28;20828;-80
2023/09/30 03:50:52;;;;;;;3.67;1.50;;;;;;;;;;10378200;28;20309;-80
2023/09/30 03:55:53;;;;;;;6.88;1.70;;;;;;;;;;10400440;28;20231;-79
2023/09/30 04:00:54;;;;;;;2.25;1.42;;;;;;;;;;10362402;28;20215;-79
2023/09/30 04:05:56;;;;;;;9.15;1.60;;;;;;;;;;10386338;28;20320;-78
2023/09/30 04:10:59;;;;;;;3.17;1.27;;;;;;;;;;10377284;28;20739;-79
2023/09/30 04:16:00;;;;;;;4.05;1.48;;;;;;;;;;10374911;28;20223;-79
2023/09/30 04:21:02;;;;;;;3.97;1.73;;;;;;;;;;10392022;28;20226;-81
2023/09/30 04:26:04;;;;;;;5.00;1.27;;;;;;;;;;10389581;28;20227;-81
2023/09/30 04:31:07;;;;;;;3.70;1.75;;;;;;;;;;10393177;28;20231;-78
2023/09/30 04:36:09;;;;;;;2.88;1.67;;;;;;;;;;10391070;28;20219;-79
2023/09/30 04:41:10;;;;;;;4.13;1.67;;;;;;;;;;10413050;28;20290;-80
2023/09/30 04:46:12;;;;;;;3.05;1.02;;;;;;;;;;10386844;28;20220;-80
2023/09/30 04:51:13;;;;;;;1.48;1.38;;;;;;;;;;10407936;28;20241;-79
2023/09/30 04:56:14;;;;;;;2.75;1.27;;;;;;;;;;10410676;28;21092;-81
2023/09/30 05:01:18;;;;;;;5.05;1.10;;;;;;;;;;10399946;28;21789;-79
2023/09/30 05:06:19;;;;;;;6.45;1.40;;;;;;;;;;10384291;28;20684;-80
2023/09/30 05:11:20;;;;;;;5.68;1.48;;;;;;;;;;10381437;28;20215;-80
2023/09/30 05:16:21;;;;;;;7.13;1.42;;;;;;;;;;10395496;28;20764;-78
2023/09/30 05:21:22;;;;;;;5.80;1.40;;;;;;;;;;10403668;28;20215;-80
2023/09/30 05:26:23;;;;;;;3.75;1.20;;;;;;;;;;10386539;28;20227;-81
2023/09/30 05:31:24;;;;;;;4.88;1.52;;;;;;;;;;10379277;28;20227;-79
2023/09/30 05:36:25;;;;;;;2.58;1.27;;;;;;;;;;10399615;28;20211;-80
2023/09/30 05:41:27;;;;;;;5.30;1.20;;;;;;;;;;10389377;28;20589;-80
2023/09/30 05:46:28;;;;;;;4.07;1.38;;;;;;;;;;10366548;28;20306;-81
2023/09/30 05:51:30;;;;;;;8.07;1.30;;;;;;;;;;10401450;28;20226;-79
2023/09/30 05:56:31;;;;;;;3.53;1.30;;;;;;;;;;10400200;28;20257;-79
2023/09/30 06:01:34;;;;;;;4.78;1.52;;;;;;;;;;10382562;28;20215;-77
2023/09/30 06:06:35;;;;;;;6.60;1.73;;;;;;;;;;10379691;28;20215;-77
2023/09/30 06:11:36;;;;;;;3.47;1.40;;;;;;;;;;10389666;28;20240;-76
2023/09/30 06:16:37;;;;;;;4.32;1.33;;;;;;;;;;10366317;28;20218;-78
2023/09/30 06:21:39;;;;;;;4.70;1.60;;;;;;;;;;10395869;28;20712;-77
2023/09/30 06:26:40;;;;;;;4.32;1.55;;;;;;;;;;10375102;28;20231;-79
2023/09/30 06:31:41;;;;;;;8.93;1.88;;;;;;;;;;10386177;28;20699;-78
2023/09/30 06:36:42;;;;;;;6.72;1.35;;;;;;;;;;10359480;28;20219;-77
2023/09/30 06:41:43;;;;;;;3.78;1.42;;;;;;;;;;10356102;28;20222;-75
2023/09/30 06:46:50;;;;;;;8.43;1.65;;;;;;;;;;10377540;28;20227;-75
2023/09/30 06:51:51;;;;;;;5.70;2.10;;;;;;;;;;10371221;28;20313;-76
2023/09/30 06:56:52;;;;;;;4.80;1.35;;;;;;;;;;10399810;28;20226;-76
2023/09/30 07:01:54;;;;;;;8.13;1.83;;;;;;;;;;10394906;28;20248;-76
2023/09/30 07:06:55;;;;;;;6.22;1.63;;;;;;;;;;10384254;28;20250;-78
2023/09/30 07:11:56;;;;;;;5.78;1.38;;;;;;;;;;10395163;28;20234;-78
2023/09/30 07:16:58;;;;;;;5.38;1.45;;;;;;;;;;10357511;28;20221;-78
2023/09/30 07:21:59;;;;;;;7.20;1.33;;;;;;;;;;10365105;28;20253;-77
2023/09/30 07:27:00;;;;;;;2.85;1.33;;;;;;;;;;10368758;28;20218;-76
2023/09/30 07:32:01;;;;;;;7.90;1.25;;;;;;;;;;10392471;28;20325;-76
2023/09/30 07:37:03;;;;;;;6.40;1.52;;;;;;;;;;10364722;28;20279;-76
2023/09/30 07:42:04;;;;;;;5.63;1.48;;;;;;;;;;10385061;28;20211;-76
2023/09/30 07:47:09;;;;;;;6.25;1.60;;;;;;;;;;10368792;28;20238;-76
2023/09/30 07:52:10;;;;;;;6.55;1.63;;;;;;;;;;10392049;28;20232;-79
2023/09/30 07:57:11;;;;;;;5.65;2.08;;;;;;;;;;10394468;28;20339;-78
2023/09/30 08:02:12;;;;;;;4.70;1.55;;;;;;;;;;10396127;28;20394;-79
2023/09/30 08:07:13;;;;;;;2.35;1.48;;;;;;;;;;10367935;28;20250;-77
2023/09/30 08:12:14;;;;;;;4.75;1.98;;;;;;;;;;10386112;28;20223;-76
2023/09/30 08:17:17;;;;;;;4.13;1.40;;;;;;;;;;10406610;28;20277;-79
2023/09/30 08:22:18;;;;;;;6.82;1.45;;;;;;;;;;10378017;28;20653;-77
2023/09/30 08:27:19;;;;;;;6.60;1.30;;;;;;;;;;10395579;28;20222;-76
2023/09/30 08:32:21;;;;;;;5.63;1.10;;;;;;;;;;10377851;28;20227;-77
2023/09/30 08:37:22;;;;;;;5.57;1.50;;;;;;;;;;10368960;28;20214;-77
2023/09/30 08:42:29;;;;;;;2.58;0.80;;;;;;;;;;10390926;28;20216;-77
2023/09/30 08:47:30;;;;;;;3.15;1.40;;;;;;;;;;10371617;28;20215;-77
2023/09/30 08:52:32;;;;;;;4.15;1.48;;;;;;;;;;10408242;28;20598;-76
2023/09/30 08:57:33;;;;;;;5.85;1.20;;;;;;;;;;10403636;28;20230;-78
2023/09/30 09:02:35;;;;;;;1.98;0.90;;;;;;;;;;10406613;28;20273;-76
2023/09/30 09:07:36;;;;;;;1.65;0.90;;;;;;;;;;10389556;28;20692;-77
2023/09/30 09:12:41;;;;;;;4.10;0.90;;;;;;;;;;10385842;28;20799;-77
2023/09/30 09:17:43;;;;;;;4.25;0.80;;;;;;;;;;10383022;28;20226;-79
2023/09/30 09:22:44;;;;;;;4.57;1.10;;;;;;;;;;10383298;28;20227;-77
2023/09/30 09:27:46;;;;;;;2.92;0.90;;;;;;;;;;10380631;28;20235;-76
2023/09/30 09:32:57;;;;;;;2.97;0.70;;;;;;;;;;10365360;28;20255;-79
2023/09/30 09:37:59;;;;;;;5.45;1.17;;;;;;;;;;10372781;28;21170;-78
2023/09/30 09:43:04;;;;;;;3.33;0.88;;;;;;;;;;10386934;28;20223;-77
2023/09/30 09:48:06;;;;;;;3.17;0.90;;;;;;;;;;10407088;28;20299;-77
2023/09/30 09:53:08;;;;;;;10.23;1.00;;;;;;;;;;10406774;28;20294;-79
2023/09/30 09:58:10;;;;;;;1.73;0.90;;;;;;;;;;10387933;28;20724;-78
2023/09/30 10:03:11;;;;;;;1.33;0.73;;;;;;;;;;10375393;28;20712;-80
2023/09/30 10:08:17;;;;;;;4.47;0.88;;;;;;;;;;10399545;28;20226;-79
2023/09/30 10:13:37;;;;;;;3.90;0.80;;;;;;;;;;10412098;28;20224;-78
2023/09/30 10:18:58;;;;;;;3.00;0.80;;;;;;;;;;10413622;28;20678;-77
2023/09/30 10:24:19;;;;;;;1.67;0.90;;;;;;;;;;10384455;28;20223;-78
2023/09/30 10:29:20;;;;;;;1.38;0.70;;;;;;;;;;10380458;28;20257;-76
2023/09/30 10:34:21;;;;;;;2.30;0.77;;;;;;;;;;10382691;28;20219;-78
2023/09/30 10:39:41;;;;;;;2.00;0.40;;;;;;;;;;10387430;28;20221;-78
2023/09/30 10:44:42;;;;;;;2.83;0.60;;;;;;;;;;10374736;28;21522;-76
2023/09/30 10:49:43;;;;;;;2.15;0.50;;;;;;;;;;10385941;28;20233;-77
2023/09/30 10:54:45;;;;;;;0.70;0.40;;;;;;;;;;10388827;28;20226;-77
2023/09/30 10:59:46;;;;;;;0.77;0.32;;;;;;;;;;10409124;28;20226;-79
2023/09/30 11:04:47;;;;;;;2.03;0.50;;;;;;;;;;10393296;28;20310;-77
2023/09/30 11:09:48;;;;;;;1.65;0.63;;;;;;;;;;10371366;28;20215;-78
2023/09/30 11:14:59;;;;;;;2.60;0.50;;;;;;;;;;10376493;28;20905;-77
2023/09/30 11:20:00;;;;;;;2.25;0.40;;;;;;;;;;10375489;28;20209;-75
2023/09/30 11:25:03;;;;;;;1.40;0.30;;;;;;;;;;10395578;28;20238;-77
2023/09/30 11:30:04;;;;;;;2.22;0.45;;;;;;;;;;10364549;28;20310;-77
2023/09/30 11:35:22;;;;;;;1.50;0.40;;;;;;;;;;10407034;28;20243;-77
2023/09/30 11:40:24;;;;;;;3.28;0.70;;;;;;;;;;10402748;28;20210;-76
2023/09/30 11:45:25;;;;;;;0.85;0.35;;;;;;;;;;10370881;28;20208;-76
2023/09/30 11:50:27;;;;;;;0.95;0.32;;;;;;;;;;10409394;28;20222;-74
2023/09/30 11:55:28;;;;;;;0.85;0.50;;;;;;;;;;10394845;28;21532;-77
2023/09/30 12:00:29;;;;;;;2.28;0.57;;;;;;;;;;10391024;28;20286;-76
2023/09/30 12:05:32;;;;;;;3.55;0.50;;;;;;;;;;10381314;28;20211;-76
2023/09/30 12:10:33;;;;;;;1.00;0.40;;;;;;;;;;10381159;28;20696;-76
2023/09/30 12:15:34;;;;;;;2.55;0.40;;;;;;;;;;10401278;28;20246;-77
2023/09/30 12:20:35;;;;;;;0.82;0.60;;;;;;;;;;10397691;28;20260;-77
2023/09/30 12:25:37;;;;;;;3.13;0.80;;;;;;;;;;10401359;28;20257;-77
2023/09/30 12:30:39;;;;;;;2.33;0.57;;;;;;;;;;10409549;28;20650;-76
2023/09/30 12:35:41;;;;;;;2.97;0.60;;;;;;;;;;10426390;28;20230;-78
2023/09/30 12:40:43;;;;;;;4.93;0.50;;;;;;;;;;10388274;28;20290;-76
2023/09/30 12:45:45;;;;;;;2.08;0.50;;;;;;;;;;10394783;28;20215;-77
2023/09/30 12:50:46;;;;;;;0.47;0.47;;;;;;;;;;10399979;28;20268;-78
2023/09/30 12:55:48;;;;;;;1.27;0.57;;;;;;;;;;10378530;28;20235;-76
2023/09/30 13:00:49;;;;;;;1.17;0.60;;;;;;;;;;10389191;28;20643;-77
2023/09/30 13:05:50;;;;;;;0.55;0.50;;;;;;;;;;10397384;28;20338;-76
2023/09/30 13:10:52;;;;;;;1.58;0.47;;;;;;;;;;10389105;28;20215;-76
2023/09/30 13:15:53;;;;;;;3.50;0.50;;;;;;;;;;10396846;28;20219;-78
2023/09/30 13:20:54;;;;;;;1.17;0.50;;;;;;;;;;10401061;28;20210;-77
2023/09/30 13:25:55;;;;;;;1.02;0.45;;;;;;;;;;10385285;28;20222;-76
2023/09/30 13:30:56;;;;;;;2.72;0.65;;;;;;;;;;10366240;28;20212;-77
2023/09/30 13:35:58;;;;;;;4.18;0.60;;;;;;;;;;10390843;28;20276;-78
2023/09/30 13:40:59;;;;;;;1.77;0.50;;;;;;;;;;10382066;28;20215;-79
2023/09/30 13:46:03;;;;;;;4.80;0.55;;;;;;;;;;10398973;28;20708;-77
2023/09/30 13:51:08;;;;;;;1.63;0.57;;;;;;;;;;10374860;28;20219;-78
2023/09/30 13:56:10;;;;;;;1.58;0.50;;;;;;;;;;10397954;28;20234;-77
2023/09/30 14:01:14;;;;;;;4.80;0.63;;;;;;;;;;10368935;28;20253;-79
2023/09/30 14:06:15;;;;;;;3.83;0.55;;;;;;;;;;10390151;28;20220;-79
2023/09/30 14:11:17;;;;;;;0.95;0.63;;;;;;;;;;10394825;28;20223;-78
2023/09/30 14:16:18;;;;;;;3.10;0.60;;;;;;;;;;10359407;28;20221;-78
2023/09/30 14:21:19;;;;;;;4.25;0.50;;;;;;;;;;10399919;28;20214;-78
2023/09/30 14:26:20;;;;;;;1.90;0.40;;;;;;;;;;10370536;28;20224;-79
2023/09/30 14:31:22;;;;;;;2.60;0.73;;;;;;;;;;10416246;28;20226;-78
2023/09/30 14:36:23;;;;;;;0.85;0.45;;;;;;;;;;10399613;28;20211;-78
2023/09/30 14:41:24;;;;;;;0.65;0.43;;;;;;;;;;10379236;28;20361;-79
2023/09/30 14:46:25;;;;;;;1.33;0.52;;;;;;;;;;10389983;28;20808;-78
2023/09/30 14:51:26;;;;;;;0.43;0.30;;;;;;;;;;10379136;28;20362;-78
2023/09/30 14:56:27;;;;;;;1.33;0.40;;;;;;;;;;10398549;28;20281;-79
2023/09/30 15:01:28;;;;;;;0.45;0.30;;;;;;;;;;10388498;28;20249;-79
2023/09/30 15:06:30;;;;;;;0.90;0.40;;;;;;;;;;10368477;28;20264;-78
2023/09/30 15:11:31;;;;;;;3.90;0.43;;;;;;;;;;10375748;28;20219;-79
2023/09/30 15:16:32;;;;;;;1.95;1.42;;;;;;;;;;10374877;28;20254;-79
2023/09/30 15:21:33;;;;;;;1.95;0.75;;;;;;;;;;10389563;28;20302;-81
2023/09/30 15:26:34;;;;;;;0.47;0.47;;;;;;;;;;10397206;28;20235;-80
2023/09/30 15:31:36;;;;;;;1.10;1.00;;;;;;;;;;10376511;28;20721;-80
2023/09/30 15:36:37;;;;;;;0.68;0.68;;;;;;;;;;10401961;28;20318;-82
2023/09/30 15:41:38;;;;;;;5.78;1.15;;;;;;;;;;10402023;28;20305;-80
2023/09/30 15:46:39;;;;;;;1.45;1.35;;;;;;;;;;10403073;28;20283;-82
2023/09/30 15:51:40;;;;;;;1.10;1.00;;;;;;;;;;10407430;28;20223;-79
2023/09/30 15:56:41;;;;;;;2.38;0.68;;;;;;;;;;10383369;28;20254;-81
2023/09/30 16:01:43;;;;;;;0.88;0.45;;;;;;;;;;10367956;28;20747;-79
2023/09/30 16:06:44;;;;;;;0.40;0.40;;;;;;;;;;10405318;28;20598;-81
2023/09/30 16:11:47;;;;;;;2.55;0.70;;;;;;;;;;10368087;28;20317;-79
2023/09/30 16:16:49;;;;;;;2.35;0.98;;;;;;;;;;10375625;28;20932;-81
2023/09/30 16:21:50;;;;;;;2.22;1.00;;;;;;;;;;10384847;28;20215;-79
2023/09/30 16:26:51;;;;;;;1.17;0.73;;;;;;;;;;10378117;28;20250;-81
2023/09/30 16:31:52;;;;;;;2.00;0.70;;;;;;;;;;10408369;28;22636;-80
2023/09/30 16:36:53;;;;;;;0.80;0.80;;;;;;;;;;10387850;28;20284;-82
2023/09/30 16:41:54;;;;;;;1.95;0.50;;;;;;;;;;10388615;28;20305;-81
2023/09/30 16:46:56;;;;;;;0.40;0.40;;;;;;;;;;10384610;28;20515;-80
2023/09/30 16:51:57;;;;;;;0.52;0.45;;;;;;;;;;10360075;28;20247;-81
2023/09/30 16:56:58;;;;;;;0.68;0.50;;;;;;;;;;10359350;28;20833;-81
2023/09/30 17:01:59;;;;;;;0.70;0.70;;;;;;;;;;10391504;28;20207;-79
2023/09/30 17:07:01;;;;;;;1.35;0.68;;;;;;;;;;10382968;28;20215;-82
2023/09/30 17:12:02;;;;;;;2.45;0.60;;;;;;;;;;10371089;28;20233;-83
2023/09/30 17:17:03;;;;;;;2.30;1.00;;;;;;;;;;10363140;28;20878;-82
2023/09/30 17:22:05;;;;;;;2.88;1.40;;;;;;;;;;10364869;28;20798;-82
2023/09/30 17:27:06;;;;;;;0.98;0.82;;;;;;;;;;10369129;28;20647;-82
2023/09/30 17:32:07;;;;;;;1.45;1.10;;;;;;;;;;10384801;28;20222;-83
2023/09/30 17:37:08;;;;;;;4.47;4.13;;;;;;;;;;10373561;28;20309;-82
2023/09/30 17:42:09;;;;;;;7.80;4.97;;;;;;;;;;10368407;28;20219;-83
2023/09/30 17:47:10;;;;;;;4.10;3.45;;;;;;;;;;10387963;28;20219;-81
2023/09/30 17:52:11;;;;;;;2.90;2.80;;;;;;;;;;10384944;28;20223;-82
2023/09/30 17:57:14;;;;;;;4.97;3.50;;;;;;;;;;10387683;28;20216;-82
2023/09/30 18:02:15;;;;;;;19.13;10.55;;;;;;;;;;10389127;28;20545;-81
2023/09/30 18:07:17;;;;;;;17.83;9.93;;;;;;;;;;10366186;28;20227;-82
2023/09/30 18:12:18;;;;;;;16.98;8.73;;;;;;;;;;10384577;28;20219;-83
2023/09/30 18:17:19;;;;;;;6.55;3.72;;;;;;;;;;10381459;28;20218;-83
2023/09/30 18:22:20;;;;;;;8.27;3.00;;;;;;;;;;10407092;28;20241;-83
2023/09/30 18:27:21;;;;;;;3.75;2.60;;;;;;;;;;10376232;28;20227;-83
2023/09/30 18:32:22;;;;;;;2.70;2.60;;;;;;;;;;10372099;28;20219;-83
2023/09/30 18:37:23;;;;;;;3.25;2.88;;;;;;;;;;10367847;28;20215;-81
2023/09/30 18:42:25;;;;;;;5.63;3.03;;;;;;;;;;10377487;28;20220;-85
2023/09/30 18:47:26;;;;;;;2.63;2.53;;;;;;;;;;10381828;28;20250;-85
2023/09/30 18:52:27;;;;;;;5.32;3.45;;;;;;;;;;10377577;28;20257;-83
2023/09/30 18:57:28;;;;;;;4.53;3.20;;;;;;;;;;10363133;28;20277;-84
2023/09/30 19:02:29;;;;;;;4.55;3.50;;;;;;;;;;10375951;28;20211;-80
2023/09/30 19:07:30;;;;;;;6.28;4.78;;;;;;;;;;10397967;28;20837;-83
2023/09/30 19:12:31;;;;;;;2.72;2.63;;;;;;;;;;10402752;28;20222;-83
2023/09/30 19:17:32;;;;;;;6.18;3.20;;;;;;;;;;10376320;28;20250;-82
2023/09/30 19:22:33;;;;;;;2.20;2.10;;;;;;;;;;10379642;28;20795;-84
2023/09/30 19:27:35;;;;;;;2.85;1.77;;;;;;;;;;10374973;28;20226;-82
2023/09/30 19:32:36;;;;;;;1.85;1.75;;;;;;;;;;10381064;28;20268;-83
2023/09/30 19:37:37;;;;;;;2.50;2.30;;;;;;;;;;10365147;28;20261;-83
2023/09/30 19:42:39;;;;;;;4.53;4.10;;;;;;;;;;10380923;28;20215;-83
2023/09/30 19:47:40;;;;;;;7.30;5.57;;;;;;;;;;10394885;28;20277;-83
2023/09/30 19:52:41;;;;;;;8.10;7.13;;;;;;;;;;10357229;28;20274;-83
2023/09/30 19:57:42;;;;;;;16.88;7.88;;;;;;;;;;10383798;28;20409;-83
2023/09/30 20:02:43;;;;;;;8.50;7.30;;;;;;;;;;10388797;28;20219;-82
2023/09/30 20:07:44;;;;;;;6.93;5.85;;;;;;;;;;10400351;28;20769;-82
2023/09/30 20:12:45;;;;;;;7.13;5.18;;;;;;;;;;10391236;28;20628;-83
2023/09/30 20:17:49;;;;;;;7.45;6.53;;;;;;;;;;10388786;28;20980;-83
2023/09/30 20:22:50;;;;;;;21.17;8.50;;;;;;;;;;10378451;28;20226;-83
2023/09/30 20:27:51;;;;;;;34.25;13.15;;;;;;;;;;10395139;28;20257;-81
2023/09/30 20:32:52;;;;;;;33.13;12.70;;;;;;;;;;10404870;28;20274;-84
2023/09/30 20:37:54;;;;;;;42.75;16.42;;;;;;;;;;10422741;28;20429;-81
2023/09/30 20:42:56;;;;;;;25.63;10.68;;;;;;;;;;10394445;28;20612;-83
2023/09/30 20:47:57;;;;;;;13.90;8.75;;;;;;;;;;10406147;28;20242;-83
2023/09/30 20:52:59;;;;;;;14.90;9.20;;;;;;;;;;10394870;28;20405;-84
2023/09/30 20:58:00;;;;;;;8.48;4.53;;;;;;;;;;10391782;28;20243;-83
2023/09/30 21:03:01;;;;;;;8.70;5.95;;;;;;;;;;10397450;28;20617;-84
2023/09/30 21:08:03;;;;;;;5.43;4.97;;;;;;;;;;10403923;28;20218;-82
2023/09/30 21:13:04;;;;;;;4.72;4.43;;;;;;;;;;10384826;28;20652;-84
2023/09/30 21:18:05;;;;;;;7.22;3.92;;;;;;;;;;10401232;28;20230;-84
2023/09/30 21:23:06;;;;;;;3.63;3.15;;;;;;;;;;10379686;28;20215;-83
2023/09/30 21:28:07;;;;;;;2.45;1.95;;;;;;;;;;10386096;28;20231;-84
2023/09/30 21:33:08;;;;;;;5.38;1.70;;;;;;;;;;10401209;28;20215;-82
2023/09/30 21:38:09;;;;;;;3.92;1.88;;;;;;;;;;10399116;28;20224;-84
2023/09/30 21:43:10;;;;;;;3.33;1.88;;;;;;;;;;10403534;28;20232;-83
2023/09/30 21:48:11;;;;;;;2.65;1.67;;;;;;;;;;10378309;28;20383;-83
2023/09/30 21:53:13;;;;;;;4.47;1.58;;;;;;;;;;10375922;28;20782;-83
2023/09/30 21:58:14;;;;;;;1.90;1.73;;;;;;;;;;10412233;28;20247;-82
2023/09/30 22:03:18;;;;;;;3.38;2.13;;;;;;;;;;10390839;28;20285;-82
2023/09/30 22:08:20;;;;;;;3.63;1.95;;;;;;;;;;10413861;28;20216;-85
2023/09/30 22:13:21;;;;;;;3.85;2.05;;;;;;;;;;10397264;28;20223;-84
2023/09/30 22:18:23;;;;;;;2.00;1.80;;;;;;;;;;10414338;28;20212;-84
2023/09/30 22:23:24;;;;;;;1.98;1.63;;;;;;;;;;10401212;28;20240;-84
2023/09/30 22:28:25;;;;;;;3.17;2.08;;;;;;;;;;10408262;28;20220;-83
2023/09/30 22:33:27;;;;;;;2.67;2.20;;;;;;;;;;10387485;28;20218;-83
2023/09/30 22:38:28;;;;;;;2.92;2.42;;;;;;;;;;10389513;28;20203;-84
2023/09/30 22:43:29;;;;;;;3.33;2.10;;;;;;;;;;10409556;28;20857;-83
2023/09/30 22:48:30;;;;;;;1.70;1.65;;;;;;;;;;10391296;28;20202;-83
2023/09/30 22:53:32;;;;;;;2.22;1.98;;;;;;;;;;10395019;28;20225;-83
2023/09/30 22:58:33;;;;;;;4.45;1.92;;;;;;;;;;10376098;28;20210;-84
2023/09/30 23:03:34;;;;;;;2.30;2.08;;;;;;;;;;10387572;28;20789;-83
2023/09/30 23:08:35;;;;;;;2.05;1.95;;;;;;;;;;10389974;28;21537;-83
2023/09/30 23:13:36;;;;;;;4.47;2.80;;;;;;;;;;10392893;28;20238;-83
2023/09/30 23:18:38;;;;;;;2.80;2.60;;;;;;;;;;10391001;28;20214;-83
2023/09/30 23:23:40;;;;;;;3.08;2.58;;;;;;;;;;10379256;28;20211;-84
2023/09/30 23:28:41;;;;;;;4.18;3.00;;;;;;;;;;10361558;28;20258;-82
2023/09/30 23:33:44;;;;;;;3.35;3.05;;;;;;;;;;10394297;28;20211;-82
2023/09/30 23:38:45;;;;;;;6.88;3.05;;;;;;;;;;10381429;28;20245;-83
2023/09/30 23:43:46;;;;;;;2.85;2.65;;;;;;;;;;10393947;28;20219;-82
2023/09/30 23:48:47;;;;;;;3.28;2.90;;;;;;;;;;10391818;28;20211;-84
2023/09/30 23:53:49;;;;;;;4.35;2.53;;;;;;;;;;10392328;28;20233;-84
2023/09/30 23:58:50;;;;;;;3.58;2.30;;;;;;;;;;10385645;28;20225;-83
